Burnips, Michigan
Current Conditions -  °F | °C
As of 3:30 PM on Wednesday 26 Nov 2014 (Local Time) from KBIV Reporting Station
Overcast Overcast  
Wind Chill: 23°   Ceiling: 2700
Heat Index: 31°   Visibility: 10mi
Dew Point: 21°   Wind: 8mph
Humidity: 67%   Direction: 120°ESE
Pressure: 30.13"   Gusts: NA
Location:  42.73°N, 85.84°W
Report Text: KBIV 262030Z AUTO 12007KT 10SM BKN027 BKN032 OVC039 M01/M06 A3013 RMK AO2 T10061061
Loading
Personal Weather Stations






























Interactive Weather Map New forecast layout! Learn more

10-Day Weather Forecast

Advertisements
Track Severe Weather on mobile